sensor_id;sensor_type;location;lat;lon;timestamp;temperature;humidity
39881;DHT22;25554;44.954;10.068;2023-08-20T00:00:29;26.30;99.90
39881;DHT22;25554;44.954;10.068;2023-08-20T00:03:03;26.30;99.90
39881;DHT22;25554;44.954;10.068;2023-08-20T00:05:31;26.30;99.90
39881;DHT22;25554;44.954;10.068;2023-08-20T00:07:57;26.20;99.90
39881;DHT22;25554;44.954;10.068;2023-08-20T00:10:23;26.20;99.90
39881;DHT22;25554;44.954;10.068;2023-08-20T00:12:50;26.10;99.90
39881;DHT22;25554;44.954;10.068;2023-08-20T00:15:16;26.10;99.90
39881;DHT22;25554;44.954;10.068;2023-08-20T00:17:42;26.10;99.90
39881;DHT22;25554;44.954;10.068;2023-08-20T00:20:09;26.10;99.90
39881;DHT22;25554;44.954;10.068;2023-08-20T00:22:37;26.10;99.90
39881;DHT22;25554;44.954;10.068;2023-08-20T00:25:04;26.00;99.90
39881;DHT22;25554;44.954;10.068;2023-08-20T00:27:32;26.00;99.90
39881;DHT22;25554;44.954;10.068;2023-08-20T00:29:59;26.00;99.90
39881;DHT22;25554;44.954;10.068;2023-08-20T00:32:25;26.00;99.90
39881;DHT22;25554;44.954;10.068;2023-08-20T00:34:51;25.90;99.90
39881;DHT22;25554;44.954;10.068;2023-08-20T00:37:17;25.90;99.90
39881;DHT22;25554;44.954;10.068;2023-08-20T00:39:44;25.80;99.90
39881;DHT22;25554;44.954;10.068;2023-08-20T00:42:10;25.80;99.90
39881;DHT22;25554;44.954;10.068;2023-08-20T00:44:36;25.80;99.90
39881;DHT22;25554;44.954;10.068;2023-08-20T00:47:04;25.70;99.90
39881;DHT22;25554;44.954;10.068;2023-08-20T00:49:32;25.70;99.90
39881;DHT22;25554;44.954;10.068;2023-08-20T00:51:59;25.70;99.90
39881;DHT22;25554;44.954;10.068;2023-08-20T00:54:26;25.60;99.90
39881;DHT22;25554;44.954;10.068;2023-08-20T00:56:54;25.50;99.90
39881;DHT22;25554;44.954;10.068;2023-08-20T00:59:20;25.50;99.90
39881;DHT22;25554;44.954;10.068;2023-08-20T01:01:47;25.40;99.90
39881;DHT22;25554;44.954;10.068;2023-08-20T01:04:13;25.40;99.90
39881;DHT22;25554;44.954;10.068;2023-08-20T01:11:49;25.20;99.90
39881;DHT22;25554;44.954;10.068;2023-08-20T01:14:16;25.20;99.90
39881;DHT22;25554;44.954;10.068;2023-08-20T01:16:44;25.10;99.90
39881;DHT22;25554;44.954;10.068;2023-08-20T01:19:15;25.00;99.90
39881;DHT22;25554;44.954;10.068;2023-08-20T01:25:00;24.80;99.90
39881;DHT22;25554;44.954;10.068;2023-08-20T01:29:54;24.50;99.90
39881;DHT22;25554;44.954;10.068;2023-08-20T01:32:22;24.40;99.90
39881;DHT22;25554;44.954;10.068;2023-08-20T01:34:49;24.30;99.90
39881;DHT22;25554;44.954;10.068;2023-08-20T01:37:15;24.20;99.90
39881;DHT22;25554;44.954;10.068;2023-08-20T01:39:42;24.20;99.90
39881;DHT22;25554;44.954;10.068;2023-08-20T01:42:08;24.20;99.90
39881;DHT22;25554;44.954;10.068;2023-08-20T01:44:35;24.20;99.90
39881;DHT22;25554;44.954;10.068;2023-08-20T01:47:01;24.20;99.90
39881;DHT22;25554;44.954;10.068;2023-08-20T01:49:28;24.20;99.90
39881;DHT22;25554;44.954;10.068;2023-08-20T01:51:55;24.20;99.90
39881;DHT22;25554;44.954;10.068;2023-08-20T01:54:21;24.20;99.90
39881;DHT22;25554;44.954;10.068;2023-08-20T01:56:48;24.20;99.90
39881;DHT22;25554;44.954;10.068;2023-08-20T01:59:15;24.20;99.90
39881;DHT22;25554;44.954;10.068;2023-08-20T02:01:41;24.20;99.90
39881;DHT22;25554;44.954;10.068;2023-08-20T02:04:07;24.20;99.90
39881;DHT22;25554;44.954;10.068;2023-08-20T02:06:33;24.20;99.90
39881;DHT22;25554;44.954;10.068;2023-08-20T02:09:00;24.10;99.90
39881;DHT22;25554;44.954;10.068;2023-08-20T02:11:26;24.10;99.90
39881;DHT22;25554;44.954;10.068;2023-08-20T02:13:52;24.00;99.90
39881;DHT22;25554;44.954;10.068;2023-08-20T02:16:18;24.10;99.90
39881;DHT22;25554;44.954;10.068;2023-08-20T02:18:44;24.10;99.90
39881;DHT22;25554;44.954;10.068;2023-08-20T02:21:11;24.10;99.90
39881;DHT22;25554;44.954;10.068;2023-08-20T02:23:37;24.10;99.90
39881;DHT22;25554;44.954;10.068;2023-08-20T02:26:07;24.00;99.90
39881;DHT22;25554;44.954;10.068;2023-08-20T02:28:34;24.00;99.90
39881;DHT22;25554;44.954;10.068;2023-08-20T02:31:04;23.90;99.90
39881;DHT22;25554;44.954;10.068;2023-08-20T02:33:30;24.00;99.90
39881;DHT22;25554;44.954;10.068;2023-08-20T02:36:04;23.90;99.90
39881;DHT22;25554;44.954;10.068;2023-08-20T02:38:30;23.90;99.90
39881;DHT22;25554;44.954;10.068;2023-08-20T02:40:57;23.90;99.90
39881;DHT22;25554;44.954;10.068;2023-08-20T02:43:23;24.00;99.90
39881;DHT22;25554;44.954;10.068;2023-08-20T02:45:49;24.00;99.90
39881;DHT22;25554;44.954;10.068;2023-08-20T02:48:17;24.00;99.90
39881;DHT22;25554;44.954;10.068;2023-08-20T02:50:44;24.00;99.90
39881;DHT22;25554;44.954;10.068;2023-08-20T02:53:11;24.00;99.90
39881;DHT22;25554;44.954;10.068;2023-08-20T02:55:37;24.00;99.90
39881;DHT22;25554;44.954;10.068;2023-08-20T02:58:03;23.90;99.90
39881;DHT22;25554;44.954;10.068;2023-08-20T03:00:30;23.80;99.90
39881;DHT22;25554;44.954;10.068;2023-08-20T03:02:57;23.80;99.90
39881;DHT22;25554;44.954;10.068;2023-08-20T03:05:24;23.70;99.90
39881;DHT22;25554;44.954;10.068;2023-08-20T03:07:51;23.60;99.90
39881;DHT22;25554;44.954;10.068;2023-08-20T03:10:17;23.60;99.90
39881;DHT22;25554;44.954;10.068;2023-08-20T03:12:43;23.60;99.90
39881;DHT22;25554;44.954;10.068;2023-08-20T03:15:10;23.50;99.90
39881;DHT22;25554;44.954;10.068;2023-08-20T03:17:36;23.50;99.90
39881;DHT22;25554;44.954;10.068;2023-08-20T03:20:02;23.50;99.90
39881;DHT22;25554;44.954;10.068;2023-08-20T03:22:32;23.50;99.90
39881;DHT22;25554;44.954;10.068;2023-08-20T03:24:59;23.60;99.90
39881;DHT22;25554;44.954;10.068;2023-08-20T03:27:25;23.60;99.90
39881;DHT22;25554;44.954;10.068;2023-08-20T03:29:52;23.60;99.90
39881;DHT22;25554;44.954;10.068;2023-08-20T03:32:19;23.50;99.90
39881;DHT22;25554;44.954;10.068;2023-08-20T03:34:45;23.50;99.90
39881;DHT22;25554;44.954;10.068;2023-08-20T03:37:16;23.40;99.90
39881;DHT22;25554;44.954;10.068;2023-08-20T03:39:42;23.40;99.90
39881;DHT22;25554;44.954;10.068;2023-08-20T03:42:08;23.30;99.90
39881;DHT22;25554;44.954;10.068;2023-08-20T03:44:35;23.30;99.90
39881;DHT22;25554;44.954;10.068;2023-08-20T03:47:01;23.30;99.90
39881;DHT22;25554;44.954;10.068;2023-08-20T03:49:27;23.20;99.90
39881;DHT22;25554;44.954;10.068;2023-08-20T03:51:54;23.30;99.90
39881;DHT22;25554;44.954;10.068;2023-08-20T03:54:20;23.30;99.90
39881;DHT22;25554;44.954;10.068;2023-08-20T03:56:46;23.40;99.90
39881;DHT22;25554;44.954;10.068;2023-08-20T03:59:13;23.40;99.90
39881;DHT22;25554;44.954;10.068;2023-08-20T04:01:39;23.40;99.90
39881;DHT22;25554;44.954;10.068;2023-08-20T04:04:05;23.40;99.90
39881;DHT22;25554;44.954;10.068;2023-08-20T04:06:32;23.40;99.90
39881;DHT22;25554;44.954;10.068;2023-08-20T04:08:58;23.40;99.90
39881;DHT22;25554;44.954;10.068;2023-08-20T04:11:25;23.40;99.90
39881;DHT22;25554;44.954;10.068;2023-08-20T04:13:51;23.40;99.90
39881;DHT22;25554;44.954;10.068;2023-08-20T04:16:17;23.40;99.90
39881;DHT22;25554;44.954;10.068;2023-08-20T04:18:44;23.30;99.90
39881;DHT22;25554;44.954;10.068;2023-08-20T04:21:10;23.30;99.90
39881;DHT22;25554;44.954;10.068;2023-08-20T04:23:37;23.30;99.90
39881;DHT22;25554;44.954;10.068;2023-08-20T04:26:04;23.50;99.90
39881;DHT22;25554;44.954;10.068;2023-08-20T04:28:33;23.30;99.90
39881;DHT22;25554;44.954;10.068;2023-08-20T04:31:00;23.30;99.90
39881;DHT22;25554;44.954;10.068;2023-08-20T04:33:36;23.30;99.90
39881;DHT22;25554;44.954;10.068;2023-08-20T04:36:02;23.30;99.90
39881;DHT22;25554;44.954;10.068;2023-08-20T04:38:28;23.20;99.90
39881;DHT22;25554;44.954;10.068;2023-08-20T04:40:55;23.10;99.90
39881;DHT22;25554;44.954;10.068;2023-08-20T04:43:21;23.10;99.90
39881;DHT22;25554;44.954;10.068;2023-08-20T04:45:47;23.00;99.90
39881;DHT22;25554;44.954;10.068;2023-08-20T04:48:15;23.00;99.90
39881;DHT22;25554;44.954;10.068;2023-08-20T04:50:41;23.10;99.90
39881;DHT22;25554;44.954;10.068;2023-08-20T04:53:08;23.10;99.90
39881;DHT22;25554;44.954;10.068;2023-08-20T04:55:34;23.20;99.90
39881;DHT22;25554;44.954;10.068;2023-08-20T04:58:00;23.20;99.90
39881;DHT22;25554;44.954;10.068;2023-08-20T05:00:27;23.30;99.90
39881;DHT22;25554;44.954;10.068;2023-08-20T05:03:00;23.30;99.90
39881;DHT22;25554;44.954;10.068;2023-08-20T05:05:27;23.30;99.90
39881;DHT22;25554;44.954;10.068;2023-08-20T05:07:53;23.30;99.90
39881;DHT22;25554;44.954;10.068;2023-08-20T05:10:19;23.30;99.90
39881;DHT22;25554;44.954;10.068;2023-08-20T05:12:46;23.30;99.90
39881;DHT22;25554;44.954;10.068;2023-08-20T05:15:14;23.30;99.90
39881;DHT22;25554;44.954;10.068;2023-08-20T05:17:40;23.30;99.90
39881;DHT22;25554;44.954;10.068;2023-08-20T05:20:07;23.30;99.90
39881;DHT22;25554;44.954;10.068;2023-08-20T05:22:35;23.30;99.90
39881;DHT22;25554;44.954;10.068;2023-08-20T05:25:02;23.30;99.90
39881;DHT22;25554;44.954;10.068;2023-08-20T05:27:29;23.30;99.90
39881;DHT22;25554;44.954;10.068;2023-08-20T05:29:57;23.40;99.90
39881;DHT22;25554;44.954;10.068;2023-08-20T05:32:23;23.50;99.90
39881;DHT22;25554;44.954;10.068;2023-08-20T05:34:50;23.50;99.90
39881;DHT22;25554;44.954;10.068;2023-08-20T05:37:16;23.60;99.90
39881;DHT22;25554;44.954;10.068;2023-08-20T05:39:43;23.70;99.90
39881;DHT22;25554;44.954;10.068;2023-08-20T05:42:10;23.80;99.90
39881;DHT22;25554;44.954;10.068;2023-08-20T05:44:38;23.90;99.90
39881;DHT22;25554;44.954;10.068;2023-08-20T05:47:08;24.00;99.90
39881;DHT22;25554;44.954;10.068;2023-08-20T05:49:35;24.10;99.90
39881;DHT22;25554;44.954;10.068;2023-08-20T05:52:02;24.20;99.90
39881;DHT22;25554;44.954;10.068;2023-08-20T05:54:29;24.20;99.90
39881;DHT22;25554;44.954;10.068;2023-08-20T05:56:58;24.30;99.90
39881;DHT22;25554;44.954;10.068;2023-08-20T05:59:24;24.30;99.90
39881;DHT22;25554;44.954;10.068;2023-08-20T06:01:52;24.40;99.90
39881;DHT22;25554;44.954;10.068;2023-08-20T06:04:19;24.40;99.90
39881;DHT22;25554;44.954;10.068;2023-08-20T06:06:45;24.40;99.90
39881;DHT22;25554;44.954;10.068;2023-08-20T06:09:12;24.50;99.90
39881;DHT22;25554;44.954;10.068;2023-08-20T06:11:38;24.60;99.90
39881;DHT22;25554;44.954;10.068;2023-08-20T06:14:04;24.70;99.90
39881;DHT22;25554;44.954;10.068;2023-08-20T06:16:31;24.90;99.90
39881;DHT22;25554;44.954;10.068;2023-08-20T06:18:58;25.00;99.90
39881;DHT22;25554;44.954;10.068;2023-08-20T06:21:24;25.20;99.90
39881;DHT22;25554;44.954;10.068;2023-08-20T06:23:50;25.30;99.90
39881;DHT22;25554;44.954;10.068;2023-08-20T06:26:16;25.40;99.90
39881;DHT22;25554;44.954;10.068;2023-08-20T06:28:43;25.60;99.90
39881;DHT22;25554;44.954;10.068;2023-08-20T06:31:09;25.70;99.90
39881;DHT22;25554;44.954;10.068;2023-08-20T06:33:35;25.80;99.90
39881;DHT22;25554;44.954;10.068;2023-08-20T06:36:01;26.20;99.90
39881;DHT22;25554;44.954;10.068;2023-08-20T06:38:27;27.40;99.90
39881;DHT22;25554;44.954;10.068;2023-08-20T06:40:53;28.60;99.90
39881;DHT22;25554;44.954;10.068;2023-08-20T06:43:20;29.60;99.90
39881;DHT22;25554;44.954;10.068;2023-08-20T06:45:46;31.30;99.90
39881;DHT22;25554;44.954;10.068;2023-08-20T06:48:12;32.70;99.90
39881;DHT22;25554;44.954;10.068;2023-08-20T06:50:41;34.20;99.90
39881;DHT22;25554;44.954;10.068;2023-08-20T06:53:07;34.00;99.90
39881;DHT22;25554;44.954;10.068;2023-08-20T06:55:33;33.70;99.90
39881;DHT22;25554;44.954;10.068;2023-08-20T06:58:01;33.30;99.90
39881;DHT22;25554;44.954;10.068;2023-08-20T07:00:27;32.10;99.90
39881;DHT22;25554;44.954;10.068;2023-08-20T07:02:53;31.80;99.90
39881;DHT22;25554;44.954;10.068;2023-08-20T07:05:19;31.80;99.90
39881;DHT22;25554;44.954;10.068;2023-08-20T07:07:46;31.70;99.90
39881;DHT22;25554;44.954;10.068;2023-08-20T07:10:13;31.70;99.90
39881;DHT22;25554;44.954;10.068;2023-08-20T07:12:39;31.50;99.90
39881;DHT22;25554;44.954;10.068;2023-08-20T07:15:06;31.30;99.90
39881;DHT22;25554;44.954;10.068;2023-08-20T07:17:33;31.20;99.90
39881;DHT22;25554;44.954;10.068;2023-08-20T07:19:59;31.10;99.90
39881;DHT22;25554;44.954;10.068;2023-08-20T07:22:25;30.90;99.90
39881;DHT22;25554;44.954;10.068;2023-08-20T07:24:52;30.80;99.90
39881;DHT22;25554;44.954;10.068;2023-08-20T07:27:18;30.80;99.90
39881;DHT22;25554;44.954;10.068;2023-08-20T07:29:44;30.60;99.90
39881;DHT22;25554;44.954;10.068;2023-08-20T07:32:11;30.60;99.90
39881;DHT22;25554;44.954;10.068;2023-08-20T07:34:37;30.60;99.90
39881;DHT22;25554;44.954;10.068;2023-08-20T07:37:04;30.60;99.90
39881;DHT22;25554;44.954;10.068;2023-08-20T07:39:31;30.60;99.90
39881;DHT22;25554;44.954;10.068;2023-08-20T07:41:57;30.60;99.90
39881;DHT22;25554;44.954;10.068;2023-08-20T07:44:23;30.50;99.90
39881;DHT22;25554;44.954;10.068;2023-08-20T07:46:50;30.50;99.90
39881;DHT22;25554;44.954;10.068;2023-08-20T07:49:16;30.20;99.90
39881;DHT22;25554;44.954;10.068;2023-08-20T07:51:42;30.30;99.90
39881;DHT22;25554;44.954;10.068;2023-08-20T07:54:08;30.40;99.90
39881;DHT22;25554;44.954;10.068;2023-08-20T07:56:34;30.60;99.90
39881;DHT22;25554;44.954;10.068;2023-08-20T07:59:01;30.70;99.90
39881;DHT22;25554;44.954;10.068;2023-08-20T08:01:27;30.60;99.90
39881;DHT22;25554;44.954;10.068;2023-08-20T08:03:53;30.50;99.90
39881;DHT22;25554;44.954;10.068;2023-08-20T08:06:19;30.50;99.90
39881;DHT22;25554;44.954;10.068;2023-08-20T08:08:49;30.20;99.90
39881;DHT22;25554;44.954;10.068;2023-08-20T08:11:15;29.80;99.90
39881;DHT22;25554;44.954;10.068;2023-08-20T08:13:41;29.50;99.90
39881;DHT22;25554;44.954;10.068;2023-08-20T08:16:07;29.50;99.90
39881;DHT22;25554;44.954;10.068;2023-08-20T08:18:34;29.50;99.90
39881;DHT22;25554;44.954;10.068;2023-08-20T08:21:00;29.60;99.90
39881;DHT22;25554;44.954;10.068;2023-08-20T08:23:26;29.70;99.90
39881;DHT22;25554;44.954;10.068;2023-08-20T08:25:52;29.70;99.90
39881;DHT22;25554;44.954;10.068;2023-08-20T08:28:19;29.60;99.90
39881;DHT22;25554;44.954;10.068;2023-08-20T08:30:45;29.70;99.90
39881;DHT22;25554;44.954;10.068;2023-08-20T08:33:11;29.80;99.90
39881;DHT22;25554;44.954;10.068;2023-08-20T08:35:37;29.90;99.90
39881;DHT22;25554;44.954;10.068;2023-08-20T08:38:04;30.10;99.90
39881;DHT22;25554;44.954;10.068;2023-08-20T08:40:31;30.20;99.90
39881;DHT22;25554;44.954;10.068;2023-08-20T08:42:57;30.30;99.90
39881;DHT22;25554;44.954;10.068;2023-08-20T08:45:26;30.50;99.90
39881;DHT22;25554;44.954;10.068;2023-08-20T08:47:54;30.70;99.90
39881;DHT22;25554;44.954;10.068;2023-08-20T08:50:20;30.90;99.90
39881;DHT22;25554;44.954;10.068;2023-08-20T08:52:47;31.00;99.90
39881;DHT22;25554;44.954;10.068;2023-08-20T08:55:16;31.20;99.90
39881;DHT22;25554;44.954;10.068;2023-08-20T08:57:43;31.20;99.90
39881;DHT22;25554;44.954;10.068;2023-08-20T09:00:09;31.10;99.90
39881;DHT22;25554;44.954;10.068;2023-08-20T09:02:36;30.90;99.90
39881;DHT22;25554;44.954;10.068;2023-08-20T09:05:02;30.60;99.90
39881;DHT22;25554;44.954;10.068;2023-08-20T09:07:28;30.80;99.90
39881;DHT22;25554;44.954;10.068;2023-08-20T09:09:58;31.00;99.90
39881;DHT22;25554;44.954;10.068;2023-08-20T09:12:26;31.20;99.90
39881;DHT22;25554;44.954;10.068;2023-08-20T09:14:53;31.30;99.90
39881;DHT22;25554;44.954;10.068;2023-08-20T09:17:25;31.50;99.90
39881;DHT22;25554;44.954;10.068;2023-08-20T09:19:54;31.80;99.90
39881;DHT22;25554;44.954;10.068;2023-08-20T09:22:22;31.70;99.90
39881;DHT22;25554;44.954;10.068;2023-08-20T09:24:54;31.70;99.90
39881;DHT22;25554;44.954;10.068;2023-08-20T09:27:21;31.70;99.90
39881;DHT22;25554;44.954;10.068;2023-08-20T09:29:55;31.90;99.90
39881;DHT22;25554;44.954;10.068;2023-08-20T09:32:23;32.10;99.90
39881;DHT22;25554;44.954;10.068;2023-08-20T09:34:50;32.40;99.90
39881;DHT22;25554;44.954;10.068;2023-08-20T09:37:19;32.60;99.90
39881;DHT22;25554;44.954;10.068;2023-08-20T09:39:46;32.70;99.90
39881;DHT22;25554;44.954;10.068;2023-08-20T09:42:13;32.80;99.90
39881;DHT22;25554;44.954;10.068;2023-08-20T09:44:42;32.90;99.90
39881;DHT22;25554;44.954;10.068;2023-08-20T09:47:10;33.10;99.90
39881;DHT22;25554;44.954;10.068;2023-08-20T09:49:44;33.10;99.90
39881;DHT22;25554;44.954;10.068;2023-08-20T09:52:12;33.10;99.90
39881;DHT22;25554;44.954;10.068;2023-08-20T09:54:49;33.00;99.90
39881;DHT22;25554;44.954;10.068;2023-08-20T09:57:39;33.00;99.90
39881;DHT22;25554;44.954;10.068;2023-08-20T10:00:08;33.20;99.90
39881;DHT22;25554;44.954;10.068;2023-08-20T10:02:43;33.30;99.90
39881;DHT22;25554;44.954;10.068;2023-08-20T10:05:11;33.40;99.90
39881;DHT22;25554;44.954;10.068;2023-08-20T10:07:40;33.30;99.90
39881;DHT22;25554;44.954;10.068;2023-08-20T10:10:21;33.40;99.90
39881;DHT22;25554;44.954;10.068;2023-08-20T10:12:48;33.60;99.90
39881;DHT22;25554;44.954;10.068;2023-08-20T10:15:15;33.70;99.90
39881;DHT22;25554;44.954;10.068;2023-08-20T10:17:42;33.80;99.90
39881;DHT22;25554;44.954;10.068;2023-08-20T10:20:12;34.00;99.30
39881;DHT22;25554;44.954;10.068;2023-08-20T10:22:40;34.10;99.20
39881;DHT22;25554;44.954;10.068;2023-08-20T10:25:08;34.10;99.20
39881;DHT22;25554;44.954;10.068;2023-08-20T10:27:39;34.10;99.10
39881;DHT22;25554;44.954;10.068;2023-08-20T10:30:11;34.10;98.40
39881;DHT22;25554;44.954;10.068;2023-08-20T10:32:53;34.20;98.00
39881;DHT22;25554;44.954;10.068;2023-08-20T10:35:27;34.30;98.30
39881;DHT22;25554;44.954;10.068;2023-08-20T10:38:14;34.20;98.40
39881;DHT22;25554;44.954;10.068;2023-08-20T10:43:30;34.40;97.60
39881;DHT22;25554;44.954;10.068;2023-08-20T10:46:28;34.20;97.80
39881;DHT22;25554;44.954;10.068;2023-08-20T10:49:00;34.20;98.20
39881;DHT22;25554;44.954;10.068;2023-08-20T10:51:35;34.30;97.90
39881;DHT22;25554;44.954;10.068;2023-08-20T10:56:48;34.50;97.50
39881;DHT22;25554;44.954;10.068;2023-08-20T10:59:16;34.50;97.70
39881;DHT22;25554;44.954;10.068;2023-08-20T11:01:48;34.60;97.50
39881;DHT22;25554;44.954;10.068;2023-08-20T11:04:16;34.60;97.40
39881;DHT22;25554;44.954;10.068;2023-08-20T11:06:42;34.50;97.30
39881;DHT22;25554;44.954;10.068;2023-08-20T11:09:09;34.50;97.50
39881;DHT22;25554;44.954;10.068;2023-08-20T11:11:40;34.50;97.30
39881;DHT22;25554;44.954;10.068;2023-08-20T11:14:11;34.60;97.10
39881;DHT22;25554;44.954;10.068;2023-08-20T11:16:40;34.50;97.50
39881;DHT22;25554;44.954;10.068;2023-08-20T11:19:07;34.40;97.50
39881;DHT22;25554;44.954;10.068;2023-08-20T11:21:38;34.20;97.60
39881;DHT22;25554;44.954;10.068;2023-08-20T11:24:08;34.30;97.30
39881;DHT22;25554;44.954;10.068;2023-08-20T11:26:38;34.40;97.90
39881;DHT22;25554;44.954;10.068;2023-08-20T11:29:08;34.60;97.40
39881;DHT22;25554;44.954;10.068;2023-08-20T11:31:38;34.60;97.30
39881;DHT22;25554;44.954;10.068;2023-08-20T11:34:06;34.60;97.50
39881;DHT22;25554;44.954;10.068;2023-08-20T11:36:32;34.80;97.30
39881;DHT22;25554;44.954;10.068;2023-08-20T11:38:59;34.90;96.40
39881;DHT22;25554;44.954;10.068;2023-08-20T11:41:25;34.90;96.60
39881;DHT22;25554;44.954;10.068;2023-08-20T11:43:52;34.80;95.80
39881;DHT22;25554;44.954;10.068;2023-08-20T11:46:20;34.70;96.60
39881;DHT22;25554;44.954;10.068;2023-08-20T11:49:07;34.80;97.00
39881;DHT22;25554;44.954;10.068;2023-08-20T11:51:41;34.90;96.70
39881;DHT22;25554;44.954;10.068;2023-08-20T11:54:10;34.90;96.90
39881;DHT22;25554;44.954;10.068;2023-08-20T11:56:43;35.00;97.00
39881;DHT22;25554;44.954;10.068;2023-08-20T11:59:11;35.10;96.90
39881;DHT22;25554;44.954;10.068;2023-08-20T12:01:37;35.20;96.70
39881;DHT22;25554;44.954;10.068;2023-08-20T12:04:05;35.20;95.90
39881;DHT22;25554;44.954;10.068;2023-08-20T12:06:33;35.20;96.00
39881;DHT22;25554;44.954;10.068;2023-08-20T12:09:01;35.20;95.10
39881;DHT22;25554;44.954;10.068;2023-08-20T12:11:30;35.30;95.40
39881;DHT22;25554;44.954;10.068;2023-08-20T12:13:57;35.20;95.60
39881;DHT22;25554;44.954;10.068;2023-08-20T12:16:24;35.20;95.70
39881;DHT22;25554;44.954;10.068;2023-08-20T12:18:51;35.20;95.80
39881;DHT22;25554;44.954;10.068;2023-08-20T12:21:18;35.20;95.60
39881;DHT22;25554;44.954;10.068;2023-08-20T12:23:45;35.20;95.80
39881;DHT22;25554;44.954;10.068;2023-08-20T12:26:11;35.10;95.50
39881;DHT22;25554;44.954;10.068;2023-08-20T12:28:37;35.10;95.20
39881;DHT22;25554;44.954;10.068;2023-08-20T12:31:03;35.10;95.90
39881;DHT22;25554;44.954;10.068;2023-08-20T12:33:30;35.10;95.50
39881;DHT22;25554;44.954;10.068;2023-08-20T12:35:57;35.10;95.20
39881;DHT22;25554;44.954;10.068;2023-08-20T12:38:23;35.20;94.90
39881;DHT22;25554;44.954;10.068;2023-08-20T12:40:50;35.30;95.40
39881;DHT22;25554;44.954;10.068;2023-08-20T12:43:16;35.40;95.00
39881;DHT22;25554;44.954;10.068;2023-08-20T12:45:42;35.40;94.90
39881;DHT22;25554;44.954;10.068;2023-08-20T12:48:09;35.40;95.00
39881;DHT22;25554;44.954;10.068;2023-08-20T12:50:35;35.50;95.00
39881;DHT22;25554;44.954;10.068;2023-08-20T12:53:02;35.40;95.10
39881;DHT22;25554;44.954;10.068;2023-08-20T12:55:28;35.40;95.20
39881;DHT22;25554;44.954;10.068;2023-08-20T12:57:56;35.50;94.90
39881;DHT22;25554;44.954;10.068;2023-08-20T13:00:23;35.60;94.90
39881;DHT22;25554;44.954;10.068;2023-08-20T13:02:54;35.70;94.90
39881;DHT22;25554;44.954;10.068;2023-08-20T13:05:22;35.70;94.90
39881;DHT22;25554;44.954;10.068;2023-08-20T13:07:49;35.80;94.70
39881;DHT22;25554;44.954;10.068;2023-08-20T13:10:16;35.80;94.60
39881;DHT22;25554;44.954;10.068;2023-08-20T13:12:48;35.70;94.50
39881;DHT22;25554;44.954;10.068;2023-08-20T13:15:19;35.70;94.70
39881;DHT22;25554;44.954;10.068;2023-08-20T13:17:48;35.80;94.40
39881;DHT22;25554;44.954;10.068;2023-08-20T13:20:15;35.90;94.50
39881;DHT22;25554;44.954;10.068;2023-08-20T13:22:41;35.90;94.60
39881;DHT22;25554;44.954;10.068;2023-08-20T13:25:09;36.10;94.60
39881;DHT22;25554;44.954;10.068;2023-08-20T13:27:35;36.20;94.60
39881;DHT22;25554;44.954;10.068;2023-08-20T13:30:02;36.20;94.30
39881;DHT22;25554;44.954;10.068;2023-08-20T13:32:29;36.20;94.10
39881;DHT22;25554;44.954;10.068;2023-08-20T13:34:55;36.20;94.30
39881;DHT22;25554;44.954;10.068;2023-08-20T13:37:22;36.30;94.10
39881;DHT22;25554;44.954;10.068;2023-08-20T13:39:48;36.30;94.20
39881;DHT22;25554;44.954;10.068;2023-08-20T13:42:15;36.10;94.10
39881;DHT22;25554;44.954;10.068;2023-08-20T13:44:41;36.20;94.10
39881;DHT22;25554;44.954;10.068;2023-08-20T13:47:08;36.20;94.20
39881;DHT22;25554;44.954;10.068;2023-08-20T13:49:34;36.20;94.20
39881;DHT22;25554;44.954;10.068;2023-08-20T13:52:00;36.40;94.20
39881;DHT22;25554;44.954;10.068;2023-08-20T13:54:27;36.50;93.40
39881;DHT22;25554;44.954;10.068;2023-08-20T13:56:53;36.30;93.50
39881;DHT22;25554;44.954;10.068;2023-08-20T13:59:19;36.20;93.70
39881;DHT22;25554;44.954;10.068;2023-08-20T14:01:45;36.10;94.00
39881;DHT22;25554;44.954;10.068;2023-08-20T14:04:12;36.10;94.00
39881;DHT22;25554;44.954;10.068;2023-08-20T14:06:39;36.10;94.00
39881;DHT22;25554;44.954;10.068;2023-08-20T14:09:05;36.00;93.70
39881;DHT22;25554;44.954;10.068;2023-08-20T14:11:32;36.00;94.00
39881;DHT22;25554;44.954;10.068;2023-08-20T14:13:58;36.10;93.90
39881;DHT22;25554;44.954;10.068;2023-08-20T14:16:24;36.20;94.00
39881;DHT22;25554;44.954;10.068;2023-08-20T14:18:51;36.40;94.10
39881;DHT22;25554;44.954;10.068;2023-08-20T14:21:17;36.60;94.00
39881;DHT22;25554;44.954;10.068;2023-08-20T14:23:43;36.70;94.00
39881;DHT22;25554;44.954;10.068;2023-08-20T14:26:10;36.80;94.10
39881;DHT22;25554;44.954;10.068;2023-08-20T14:28:36;36.90;94.10
39881;DHT22;25554;44.954;10.068;2023-08-20T14:31:03;36.80;93.50
39881;DHT22;25554;44.954;10.068;2023-08-20T14:33:33;36.60;93.70
39881;DHT22;25554;44.954;10.068;2023-08-20T14:35:59;36.60;94.10
39881;DHT22;25554;44.954;10.068;2023-08-20T14:38:25;36.70;93.80
39881;DHT22;25554;44.954;10.068;2023-08-20T14:40:52;36.60;94.00
39881;DHT22;25554;44.954;10.068;2023-08-20T14:43:19;36.60;93.90
39881;DHT22;25554;44.954;10.068;2023-08-20T14:45:45;36.70;94.00
39881;DHT22;25554;44.954;10.068;2023-08-20T14:48:11;37.00;93.80
39881;DHT22;25554;44.954;10.068;2023-08-20T14:50:38;37.10;93.60
39881;DHT22;25554;44.954;10.068;2023-08-20T14:53:04;37.10;93.80
39881;DHT22;25554;44.954;10.068;2023-08-20T14:55:30;37.20;93.30
39881;DHT22;25554;44.954;10.068;2023-08-20T14:57:56;37.00;93.40
39881;DHT22;25554;44.954;10.068;2023-08-20T15:00:23;37.10;93.40
39881;DHT22;25554;44.954;10.068;2023-08-20T15:02:50;37.10;93.50
39881;DHT22;25554;44.954;10.068;2023-08-20T15:05:17;37.00;93.20
39881;DHT22;25554;44.954;10.068;2023-08-20T15:07:43;36.90;93.60
39881;DHT22;25554;44.954;10.068;2023-08-20T15:10:10;36.90;93.70
39881;DHT22;25554;44.954;10.068;2023-08-20T15:12:37;36.90;93.80
39881;DHT22;25554;44.954;10.068;2023-08-20T15:15:04;37.00;93.50
39881;DHT22;25554;44.954;10.068;2023-08-20T15:17:31;37.20;93.60
39881;DHT22;25554;44.954;10.068;2023-08-20T15:20:00;37.40;93.60
39881;DHT22;25554;44.954;10.068;2023-08-20T15:22:26;37.50;93.70
39881;DHT22;25554;44.954;10.068;2023-08-20T15:24:53;37.50;93.80
39881;DHT22;25554;44.954;10.068;2023-08-20T15:27:21;37.50;93.20
39881;DHT22;25554;44.954;10.068;2023-08-20T15:29:48;37.50;93.10
39881;DHT22;25554;44.954;10.068;2023-08-20T15:32:14;37.40;92.40